createdAt,value
2024-01-04T00:03:54.914Z,47.07
2024-01-04T00:08:56.872Z,46.71
2024-01-04T00:14:01.021Z,47.47
2024-01-04T00:19:03.834Z,47.66
2024-01-04T00:24:05.967Z,46.50
2024-01-04T00:29:07.688Z,46.86
2024-01-04T00:34:10.020Z,46.42
2024-01-04T00:39:11.835Z,47.54
2024-01-04T00:44:13.536Z,46.46
2024-01-04T00:49:15.275Z,46.21
2024-01-04T00:54:16.990Z,47.08
2024-01-04T00:59:18.724Z,46.26
2024-01-04T01:04:20.394Z,47.65
2024-01-04T01:09:22.157Z,47.14
2024-01-04T01:14:23.940Z,45.76
2024-01-04T01:19:25.729Z,46.12
2024-01-04T01:24:27.504Z,46.32
2024-01-04T01:29:29.172Z,45.08
2024-01-04T01:34:30.923Z,46.74
2024-01-04T01:39:32.694Z,46.87
2024-01-04T01:44:34.497Z,46.13
2024-01-04T01:49:36.509Z,45.96
2024-01-04T01:54:40.414Z,45.25
2024-01-04T01:59:42.368Z,44.60
2024-01-04T02:04:44.269Z,44.63
2024-01-04T02:09:46.225Z,43.59
2024-01-04T02:14:49.488Z,44.15
2024-01-04T02:19:51.367Z,43.14
2024-01-04T02:24:53.104Z,45.24
2024-01-04T02:29:56.367Z,45.88
2024-01-04T02:34:58.042Z,45.36
2024-01-04T02:39:59.748Z,44.27
2024-01-04T02:45:01.626Z,43.82
2024-01-04T02:50:04.151Z,45.51
2024-01-04T02:55:05.908Z,45.45
2024-01-04T03:00:08.648Z,44.60
2024-01-04T03:05:10.459Z,45.83
2024-01-04T03:10:12.410Z,46.32
2024-01-04T03:15:14.271Z,46.80
2024-01-04T03:20:16.047Z,45.48
2024-01-04T03:25:17.830Z,45.68
2024-01-04T03:30:21.000Z,45.86
2024-01-04T03:35:22.965Z,46.19
2024-01-04T03:40:24.652Z,45.13
2024-01-04T03:45:26.440Z,44.87
2024-01-04T03:50:28.145Z,46.01
2024-01-04T03:55:29.890Z,46.66
2024-01-04T04:00:31.748Z,46.00
2024-01-04T04:05:34.263Z,44.84
2024-01-04T04:10:36.111Z,46.37
2024-01-04T04:15:37.846Z,46.34
2024-01-04T04:20:39.651Z,47.70
2024-01-04T04:25:41.446Z,47.54
2024-01-04T04:30:43.198Z,47.85
2024-01-04T04:35:51.636Z,47.38
2024-01-04T04:41:00.481Z,48.54
2024-01-04T04:46:05.305Z,47.25
2024-01-04T04:51:07.129Z,47.21
2024-01-04T04:56:09.784Z,46.22
2024-01-04T05:05:13.612Z,52.61
2024-01-04T05:10:15.317Z,52.80
2024-01-04T05:15:16.969Z,53.00
2024-01-04T05:20:18.757Z,50.71
2024-01-04T05:25:20.393Z,49.42
2024-01-04T05:30:22.089Z,52.01
2024-01-04T05:35:23.763Z,51.18
2024-01-04T05:40:25.331Z,50.30
2024-01-04T05:45:27.444Z,49.31
2024-01-04T05:50:29.108Z,50.27
2024-01-04T05:55:31.338Z,49.11
2024-01-04T06:00:33.111Z,49.60
2024-01-04T06:05:34.817Z,48.76
2024-01-04T06:10:36.629Z,49.15
2024-01-04T06:15:38.270Z,48.81
2024-01-04T06:20:40.500Z,50.04
2024-01-04T06:25:42.203Z,49.42
2024-01-04T06:30:43.987Z,49.92
2024-01-04T06:35:45.750Z,49.78
2024-01-04T06:40:48.134Z,49.10
2024-01-04T06:45:50.963Z,49.67
2024-01-04T06:50:52.691Z,49.23
2024-01-04T06:55:54.386Z,49.15
2024-01-04T07:00:57.793Z,48.27
2024-01-04T07:05:59.567Z,49.23
2024-01-04T07:11:05.405Z,47.81
2024-01-04T07:16:07.177Z,47.80
2024-01-04T07:21:08.935Z,47.73
2024-01-04T07:26:10.822Z,47.88
2024-01-04T07:31:12.487Z,47.96
2024-01-04T07:36:15.837Z,47.74
2024-01-04T07:41:17.549Z,46.49
2024-01-04T07:46:19.133Z,45.90
2024-01-04T07:51:20.809Z,47.28
2024-01-04T07:56:22.634Z,47.41
2024-01-04T08:01:24.425Z,46.06
2024-01-04T08:06:26.151Z,45.21
2024-01-04T08:11:27.817Z,45.18
2024-01-04T08:16:29.551Z,45.37
2024-01-04T08:21:31.816Z,45.58
2024-01-04T08:26:33.524Z,46.09
2024-01-04T08:31:35.144Z,45.32
2024-01-04T08:36:36.930Z,45.60
2024-01-04T08:41:38.563Z,45.36
2024-01-04T08:46:40.276Z,46.72
2024-01-04T08:51:41.877Z,45.91
2024-01-04T08:56:43.506Z,46.28
2024-01-04T09:01:45.286Z,46.76
2024-01-04T09:06:47.225Z,44.08
2024-01-04T09:11:50.466Z,45.05
2024-01-04T09:16:52.186Z,46.72
2024-01-04T09:21:53.760Z,47.20
2024-01-04T09:26:55.438Z,46.47
2024-01-04T09:31:57.703Z,47.86
2024-01-04T09:36:59.369Z,47.08
2024-01-04T09:42:01.319Z,47.42
2024-01-04T09:47:08.835Z,46.99
2024-01-04T09:52:11.124Z,46.97
2024-01-04T09:57:13.029Z,46.31
2024-01-04T10:02:19.125Z,47.30
2024-01-04T10:07:24.216Z,45.62
2024-01-04T10:12:30.382Z,45.93
2024-01-04T10:17:34.261Z,45.91
2024-01-04T10:22:36.262Z,46.72
2024-01-04T10:27:38.358Z,47.37
2024-01-04T10:32:40.207Z,46.27
2024-01-04T10:37:42.031Z,46.52
2024-01-04T10:42:54.578Z,47.19
2024-01-04T10:47:57.091Z,46.61
2024-01-04T10:53:01.157Z,45.79
2024-01-04T10:58:05.302Z,46.48
2024-01-04T11:06:15.683Z,49.31
2024-01-04T11:11:19.894Z,50.23
2024-01-04T11:16:27.593Z,49.60
2024-01-04T11:21:50.622Z,49.84
2024-01-04T11:26:54.284Z,49.60
2024-01-04T11:32:00.421Z,48.08
2024-01-04T11:37:19.720Z,49.27
2024-01-04T11:42:21.601Z,49.59
2024-01-04T11:47:27.067Z,48.48
2024-01-04T11:52:31.953Z,48.93
2024-01-04T11:57:33.675Z,49.77
2024-01-04T12:02:35.359Z,48.99
2024-01-04T12:07:37.625Z,49.21
2024-01-04T12:12:43.063Z,49.30
2024-01-04T12:17:44.723Z,48.39
2024-01-04T12:22:46.518Z,46.51
2024-01-04T12:27:48.281Z,45.66
2024-01-04T12:32:51.509Z,46.47
2024-01-04T12:38:01.145Z,44.75
2024-01-04T12:43:03.178Z,46.61
2024-01-04T12:48:07.096Z,44.76
2024-01-04T12:53:08.831Z,44.81
2024-01-04T12:58:11.899Z,45.77
2024-01-04T13:03:13.638Z,46.50
2024-01-04T13:08:15.327Z,46.31
2024-01-04T13:13:17.641Z,46.26
2024-01-04T13:18:19.774Z,45.29
2024-01-04T13:23:21.531Z,45.80
2024-01-04T13:28:23.877Z,46.14
2024-01-04T13:33:28.131Z,46.10
2024-01-04T13:38:30.074Z,45.66
2024-01-04T13:43:33.889Z,46.53
2024-01-04T13:48:35.804Z,45.24
2024-01-04T13:53:40.523Z,44.43
2024-01-04T13:58:42.623Z,45.04
2024-01-04T14:03:44.425Z,46.30
2024-01-04T14:08:47.167Z,46.01
2024-01-04T14:13:48.894Z,45.04
2024-01-04T14:18:50.513Z,45.50
2024-01-04T14:23:52.896Z,45.09
2024-01-04T14:28:54.566Z,46.79
2024-01-04T14:33:56.643Z,47.90
2024-01-04T14:38:58.371Z,46.39
2024-01-04T14:44:00.038Z,46.30
2024-01-04T14:49:04.070Z,47.09
2024-01-04T14:54:06.204Z,47.39
2024-01-04T14:59:07.985Z,46.38
2024-01-04T15:04:09.720Z,46.16
2024-01-04T15:09:16.603Z,46.14
2024-01-04T15:14:18.241Z,46.85
2024-01-04T15:19:20.441Z,47.87
2024-01-04T15:24:22.354Z,47.69
2024-01-04T15:29:24.154Z,46.82
2024-01-04T15:34:26.095Z,44.90
2024-01-04T15:39:27.838Z,45.03
2024-01-04T15:44:29.592Z,46.01
2024-01-04T15:49:31.297Z,45.40
2024-01-04T15:54:34.355Z,44.85
2024-01-04T15:59:36.070Z,44.81
2024-01-04T16:04:37.756Z,46.16
2024-01-04T16:09:39.456Z,46.32
2024-01-04T16:14:41.090Z,45.35
2024-01-04T16:19:42.933Z,44.06
2024-01-04T16:24:44.625Z,44.14
2024-01-04T16:29:46.955Z,43.40
2024-01-04T16:34:48.543Z,44.47
2024-01-04T16:39:50.172Z,44.16
2024-01-04T16:44:51.784Z,43.27
2024-01-04T16:49:53.469Z,43.53
2024-01-04T16:54:55.595Z,45.03
2024-01-04T16:59:57.295Z,44.90
2024-01-04T17:04:58.976Z,43.83
2024-01-04T17:10:00.635Z,44.68
2024-01-04T17:15:02.562Z,44.50
2024-01-04T17:20:06.531Z,43.57
2024-01-04T17:25:08.674Z,44.13
2024-01-04T17:30:10.728Z,44.12
2024-01-04T17:35:12.516Z,42.88
2024-01-04T17:40:14.342Z,43.54
2024-01-04T17:45:16.007Z,43.29
2024-01-04T17:50:17.642Z,44.30
2024-01-04T17:55:19.347Z,45.25
2024-01-04T18:00:21.226Z,46.25
2024-01-04T18:05:23.145Z,47.13
2024-01-04T18:10:24.786Z,45.68
2024-01-04T18:15:26.570Z,44.34
2024-01-04T18:20:28.685Z,47.65
2024-01-04T18:25:30.391Z,46.47
2024-01-04T18:30:34.103Z,46.02
2024-01-04T18:35:36.569Z,47.30
2024-01-04T18:40:38.184Z,48.60
2024-01-04T18:45:39.926Z,50.49
2024-01-04T18:50:41.590Z,48.88
2024-01-04T18:55:43.230Z,49.46
2024-01-04T19:00:44.990Z,45.80
2024-01-04T19:05:46.759Z,47.32
2024-01-04T19:10:48.349Z,49.01
2024-01-04T19:15:59.033Z,45.70
2024-01-04T19:21:02.401Z,47.36
2024-01-04T19:26:04.132Z,49.15
2024-01-04T19:31:05.820Z,48.64
2024-01-04T19:36:07.838Z,49.13
2024-01-04T19:41:10.689Z,50.25
2024-01-04T19:46:12.427Z,46.43
2024-01-04T19:51:14.066Z,46.26
2024-01-04T19:56:15.830Z,46.77
2024-01-04T20:01:17.955Z,44.29
2024-01-04T20:06:19.677Z,44.87
2024-01-04T20:11:21.375Z,45.58
2024-01-04T20:16:23.385Z,44.58
2024-01-04T20:21:25.010Z,42.83
2024-01-04T20:26:26.809Z,43.45
2024-01-04T20:31:28.413Z,43.59
2024-01-04T20:36:30.098Z,44.89
2024-01-04T20:41:31.681Z,45.59
2024-01-04T20:46:33.976Z,42.60
2024-01-04T20:51:35.658Z,46.76
2024-01-04T20:56:40.181Z,43.83
2024-01-04T21:01:41.971Z,43.41
2024-01-04T21:06:46.487Z,46.25
2024-01-04T21:11:52.945Z,45.42
2024-01-04T21:16:54.693Z,44.36
2024-01-04T21:21:56.449Z,43.77
2024-01-04T21:26:58.739Z,41.56
2024-01-04T21:32:00.424Z,42.21
2024-01-04T21:37:02.094Z,43.49
2024-01-04T21:42:04.531Z,41.11
2024-01-04T21:47:06.254Z,43.19
2024-01-04T21:52:07.927Z,41.53
2024-01-04T21:57:09.671Z,41.18
2024-01-04T22:02:11.339Z,41.48
2024-01-04T22:07:12.965Z,42.38
2024-01-04T22:12:14.783Z,41.57
2024-01-04T22:17:16.465Z,40.42
2024-01-04T22:22:18.138Z,40.52
2024-01-04T22:27:19.885Z,40.07
2024-01-04T22:32:21.985Z,39.92
2024-01-04T22:37:23.732Z,38.78
2024-01-04T22:42:26.438Z,39.68
2024-01-04T22:47:28.213Z,39.37
2024-01-04T22:52:30.014Z,38.65
2024-01-04T22:57:31.785Z,40.81
2024-01-04T23:02:34.014Z,41.34
2024-01-04T23:07:35.762Z,42.29
2024-01-04T23:12:37.928Z,41.52
2024-01-04T23:17:39.773Z,40.90
2024-01-04T23:22:41.541Z,43.01
2024-01-04T23:27:44.036Z,42.82
2024-01-04T23:32:45.686Z,40.70
2024-01-04T23:37:47.378Z,39.08
2024-01-04T23:42:49.112Z,41.72
2024-01-04T23:47:51.071Z,41.58
2024-01-04T23:52:52.867Z,41.12
2024-01-04T23:57:54.571Z,43.36
